sensor_id;sensor_type;location;lat;lon;timestamp;P1;durP1;ratioP1;P2;durP2;ratioP2
6937;SDS011;40040;42.706;23.372;2023-08-06T00:00:30;5.60;;;3.90;;
6937;SDS011;40040;42.706;23.372;2023-08-06T00:02:57;6.95;;;3.95;;
6937;SDS011;40040;42.706;23.372;2023-08-06T00:05:25;7.30;;;3.35;;
6937;SDS011;40040;42.706;23.372;2023-08-06T00:07:51;3.58;;;3.38;;
6937;SDS011;40040;42.706;23.372;2023-08-06T00:10:18;4.47;;;3.58;;
6937;SDS011;40040;42.706;23.372;2023-08-06T00:12:45;6.63;;;3.80;;
6937;SDS011;40040;42.706;23.372;2023-08-06T00:15:14;4.15;;;3.83;;
6937;SDS011;40040;42.706;23.372;2023-08-06T00:17:40;5.50;;;4.20;;
6937;SDS011;40040;42.706;23.372;2023-08-06T00:20:07;4.88;;;4.00;;
6937;SDS011;40040;42.706;23.372;2023-08-06T00:22:36;5.53;;;4.72;;
6937;SDS011;40040;42.706;23.372;2023-08-06T00:25:04;6.10;;;4.53;;
6937;SDS011;40040;42.706;23.372;2023-08-06T00:27:32;4.03;;;3.67;;
6937;SDS011;40040;42.706;23.372;2023-08-06T00:29:59;4.55;;;4.13;;
6937;SDS011;40040;42.706;23.372;2023-08-06T00:32:25;4.20;;;3.80;;
6937;SDS011;40040;42.706;23.372;2023-08-06T00:34:52;3.78;;;3.50;;
6937;SDS011;40040;42.706;23.372;2023-08-06T00:37:19;7.43;;;4.25;;
6937;SDS011;40040;42.706;23.372;2023-08-06T00:39:47;4.80;;;4.38;;
6937;SDS011;40040;42.706;23.372;2023-08-06T00:42:14;4.53;;;3.92;;
6937;SDS011;40040;42.706;23.372;2023-08-06T00:44:42;7.13;;;4.50;;
6937;SDS011;40040;42.706;23.372;2023-08-06T00:47:09;4.50;;;4.07;;
6937;SDS011;40040;42.706;23.372;2023-08-06T00:49:36;4.05;;;3.83;;
6937;SDS011;40040;42.706;23.372;2023-08-06T00:52:04;3.67;;;3.47;;
6937;SDS011;40040;42.706;23.372;2023-08-06T00:54:33;4.50;;;4.07;;
6937;SDS011;40040;42.706;23.372;2023-08-06T00:57:03;4.72;;;4.10;;
6937;SDS011;40040;42.706;23.372;2023-08-06T00:59:31;4.47;;;4.07;;
6937;SDS011;40040;42.706;23.372;2023-08-06T01:01:58;5.53;;;5.10;;
6937;SDS011;40040;42.706;23.372;2023-08-06T01:04:25;6.22;;;5.63;;
6937;SDS011;40040;42.706;23.372;2023-08-06T01:06:54;5.80;;;5.30;;
6937;SDS011;40040;42.706;23.372;2023-08-06T01:09:31;7.18;;;6.57;;
6937;SDS011;40040;42.706;23.372;2023-08-06T01:12:13;7.25;;;6.45;;
6937;SDS011;40040;42.706;23.372;2023-08-06T01:14:48;6.78;;;6.18;;
6937;SDS011;40040;42.706;23.372;2023-08-06T01:17:20;6.88;;;6.15;;
6937;SDS011;40040;42.706;23.372;2023-08-06T01:19:46;8.10;;;6.20;;
6937;SDS011;40040;42.706;23.372;2023-08-06T01:22:14;7.22;;;6.53;;
6937;SDS011;40040;42.706;23.372;2023-08-06T01:24:41;8.57;;;6.82;;
6937;SDS011;40040;42.706;23.372;2023-08-06T01:27:14;9.20;;;7.07;;
6937;SDS011;40040;42.706;23.372;2023-08-06T01:29:47;8.07;;;7.28;;
6937;SDS011;40040;42.706;23.372;2023-08-06T01:32:22;7.00;;;6.35;;
6937;SDS011;40040;42.706;23.372;2023-08-06T01:34:51;7.03;;;6.43;;
6937;SDS011;40040;42.706;23.372;2023-08-06T01:37:21;7.07;;;6.43;;
6937;SDS011;40040;42.706;23.372;2023-08-06T01:39:49;7.60;;;5.53;;
6937;SDS011;40040;42.706;23.372;2023-08-06T01:42:16;6.13;;;5.13;;
6937;SDS011;40040;42.706;23.372;2023-08-06T01:44:43;6.22;;;4.82;;
6937;SDS011;40040;42.706;23.372;2023-08-06T01:47:10;5.20;;;4.70;;
6937;SDS011;40040;42.706;23.372;2023-08-06T01:49:36;4.65;;;4.10;;
6937;SDS011;40040;42.706;23.372;2023-08-06T01:52:04;4.90;;;4.50;;
6937;SDS011;40040;42.706;23.372;2023-08-06T01:54:32;6.63;;;4.40;;
6937;SDS011;40040;42.706;23.372;2023-08-06T01:56:59;4.30;;;3.90;;
6937;SDS011;40040;42.706;23.372;2023-08-06T01:59:26;4.38;;;3.97;;
6937;SDS011;40040;42.706;23.372;2023-08-06T02:01:52;4.90;;;4.40;;
6937;SDS011;40040;42.706;23.372;2023-08-06T02:04:19;4.40;;;4.00;;
6937;SDS011;40040;42.706;23.372;2023-08-06T02:06:46;4.82;;;4.03;;
6937;SDS011;40040;42.706;23.372;2023-08-06T02:09:13;4.40;;;4.00;;
6937;SDS011;40040;42.706;23.372;2023-08-06T02:11:41;4.32;;;4.00;;
6937;SDS011;40040;42.706;23.372;2023-08-06T02:14:08;4.93;;;4.53;;
6937;SDS011;40040;42.706;23.372;2023-08-06T02:16:35;4.88;;;4.28;;
6937;SDS011;40040;42.706;23.372;2023-08-06T02:19:02;5.25;;;4.22;;
6937;SDS011;40040;42.706;23.372;2023-08-06T02:21:29;5.45;;;4.50;;
6937;SDS011;40040;42.706;23.372;2023-08-06T02:23:55;4.82;;;4.43;;
6937;SDS011;40040;42.706;23.372;2023-08-06T02:26:23;5.20;;;4.32;;
6937;SDS011;40040;42.706;23.372;2023-08-06T02:28:51;4.55;;;4.10;;
6937;SDS011;40040;42.706;23.372;2023-08-06T02:31:18;5.38;;;4.38;;
6937;SDS011;40040;42.706;23.372;2023-08-06T02:33:44;4.63;;;4.22;;
6937;SDS011;40040;42.706;23.372;2023-08-06T02:36:11;6.68;;;4.30;;
6937;SDS011;40040;42.706;23.372;2023-08-06T02:38:38;4.88;;;4.28;;
6937;SDS011;40040;42.706;23.372;2023-08-06T02:41:05;4.38;;;4.00;;
6937;SDS011;40040;42.706;23.372;2023-08-06T02:43:32;8.15;;;5.03;;
6937;SDS011;40040;42.706;23.372;2023-08-06T02:46:00;4.65;;;4.10;;
6937;SDS011;40040;42.706;23.372;2023-08-06T02:48:27;4.50;;;4.10;;
6937;SDS011;40040;42.706;23.372;2023-08-06T02:50:56;4.65;;;4.25;;
6937;SDS011;40040;42.706;23.372;2023-08-06T02:53:25;3.78;;;3.58;;
6937;SDS011;40040;42.706;23.372;2023-08-06T02:55:51;4.55;;;4.10;;
6937;SDS011;40040;42.706;23.372;2023-08-06T02:58:18;3.70;;;3.45;;
6937;SDS011;40040;42.706;23.372;2023-08-06T03:00:59;3.63;;;3.42;;
6937;SDS011;40040;42.706;23.372;2023-08-06T03:03:28;3.88;;;3.50;;
6937;SDS011;40040;42.706;23.372;2023-08-06T03:05:55;4.55;;;4.15;;
6937;SDS011;40040;42.706;23.372;2023-08-06T03:08:22;4.80;;;4.28;;
6937;SDS011;40040;42.706;23.372;2023-08-06T03:10:49;6.35;;;5.10;;
6937;SDS011;40040;42.706;23.372;2023-08-06T03:13:16;6.70;;;4.88;;
6937;SDS011;40040;42.706;23.372;2023-08-06T03:15:43;6.18;;;5.10;;
6937;SDS011;40040;42.706;23.372;2023-08-06T03:18:19;6.72;;;5.80;;
6937;SDS011;40040;42.706;23.372;2023-08-06T03:20:45;6.88;;;6.25;;
6937;SDS011;40040;42.706;23.372;2023-08-06T03:23:12;6.75;;;6.13;;
6937;SDS011;40040;42.706;23.372;2023-08-06T03:25:39;7.47;;;5.93;;
6937;SDS011;40040;42.706;23.372;2023-08-06T03:28:06;7.32;;;5.72;;
6937;SDS011;40040;42.706;23.372;2023-08-06T03:30:33;6.88;;;5.47;;
6937;SDS011;40040;42.706;23.372;2023-08-06T03:32:59;6.43;;;5.82;;
6937;SDS011;40040;42.706;23.372;2023-08-06T03:35:28;7.88;;;6.00;;
6937;SDS011;40040;42.706;23.372;2023-08-06T03:37:55;6.28;;;5.65;;
6937;SDS011;40040;42.706;23.372;2023-08-06T03:40:21;5.65;;;5.15;;
6937;SDS011;40040;42.706;23.372;2023-08-06T03:42:48;6.32;;;5.72;;
6937;SDS011;40040;42.706;23.372;2023-08-06T03:45:15;7.43;;;6.28;;
6937;SDS011;40040;42.706;23.372;2023-08-06T03:47:42;9.30;;;8.10;;
6937;SDS011;40040;42.706;23.372;2023-08-06T03:50:09;9.13;;;8.07;;
6937;SDS011;40040;42.706;23.372;2023-08-06T03:52:37;9.90;;;8.25;;
6937;SDS011;40040;42.706;23.372;2023-08-06T03:55:04;8.77;;;7.85;;
6937;SDS011;40040;42.706;23.372;2023-08-06T03:57:31;9.23;;;8.32;;
6937;SDS011;40040;42.706;23.372;2023-08-06T03:59:58;10.00;;;8.55;;
6937;SDS011;40040;42.706;23.372;2023-08-06T04:02:27;10.13;;;9.13;;
6937;SDS011;40040;42.706;23.372;2023-08-06T04:04:53;9.68;;;8.68;;
6937;SDS011;40040;42.706;23.372;2023-08-06T04:07:20;10.52;;;8.82;;
6937;SDS011;40040;42.706;23.372;2023-08-06T04:09:56;8.75;;;7.85;;
6937;SDS011;40040;42.706;23.372;2023-08-06T04:12:24;8.35;;;7.45;;
6937;SDS011;40040;42.706;23.372;2023-08-06T04:14:51;8.18;;;7.30;;
6937;SDS011;40040;42.706;23.372;2023-08-06T04:17:19;7.75;;;6.38;;
6937;SDS011;40040;42.706;23.372;2023-08-06T04:19:47;6.50;;;5.90;;
6937;SDS011;40040;42.706;23.372;2023-08-06T04:22:14;6.13;;;5.53;;
6937;SDS011;40040;42.706;23.372;2023-08-06T04:24:41;5.90;;;5.30;;
6937;SDS011;40040;42.706;23.372;2023-08-06T04:27:09;5.57;;;5.13;;
6937;SDS011;40040;42.706;23.372;2023-08-06T04:29:36;6.32;;;5.65;;
6937;SDS011;40040;42.706;23.372;2023-08-06T04:32:03;5.60;;;5.20;;
6937;SDS011;40040;42.706;23.372;2023-08-06T04:34:32;6.07;;;5.57;;
6937;SDS011;40040;42.706;23.372;2023-08-06T04:36:59;6.43;;;5.82;;
6937;SDS011;40040;42.706;23.372;2023-08-06T04:39:26;6.80;;;6.10;;
6937;SDS011;40040;42.706;23.372;2023-08-06T04:41:53;6.72;;;6.05;;
6937;SDS011;40040;42.706;23.372;2023-08-06T04:44:22;6.38;;;5.68;;
6937;SDS011;40040;42.706;23.372;2023-08-06T04:46:49;6.10;;;5.60;;
6937;SDS011;40040;42.706;23.372;2023-08-06T04:49:17;6.35;;;5.75;;
6937;SDS011;40040;42.706;23.372;2023-08-06T04:51:43;6.25;;;5.65;;
6937;SDS011;40040;42.706;23.372;2023-08-06T04:54:10;6.80;;;6.03;;
6937;SDS011;40040;42.706;23.372;2023-08-06T04:56:37;6.18;;;5.68;;
6937;SDS011;40040;42.706;23.372;2023-08-06T04:59:04;5.75;;;5.25;;
6937;SDS011;40040;42.706;23.372;2023-08-06T05:01:32;5.78;;;5.30;;
6937;SDS011;40040;42.706;23.372;2023-08-06T05:03:59;6.25;;;5.32;;
6937;SDS011;40040;42.706;23.372;2023-08-06T05:06:26;8.77;;;5.55;;
6937;SDS011;40040;42.706;23.372;2023-08-06T05:08:53;5.60;;;5.13;;
6937;SDS011;40040;42.706;23.372;2023-08-06T05:11:20;6.50;;;5.75;;
6937;SDS011;40040;42.706;23.372;2023-08-06T05:13:47;6.68;;;5.03;;
6937;SDS011;40040;42.706;23.372;2023-08-06T05:16:14;6.25;;;5.55;;
6937;SDS011;40040;42.706;23.372;2023-08-06T05:18:42;6.07;;;5.32;;
6937;SDS011;40040;42.706;23.372;2023-08-06T05:21:09;8.95;;;4.70;;
6937;SDS011;40040;42.706;23.372;2023-08-06T05:23:36;5.47;;;4.82;;
6937;SDS011;40040;42.706;23.372;2023-08-06T05:26:02;3.85;;;3.65;;
6937;SDS011;40040;42.706;23.372;2023-08-06T05:28:29;3.88;;;3.67;;
6937;SDS011;40040;42.706;23.372;2023-08-06T05:30:56;4.00;;;3.60;;
6937;SDS011;40040;42.706;23.372;2023-08-06T05:33:23;4.07;;;3.88;;
6937;SDS011;40040;42.706;23.372;2023-08-06T05:35:51;3.97;;;3.70;;
6937;SDS011;40040;42.706;23.372;2023-08-06T05:38:18;4.20;;;3.90;;
6937;SDS011;40040;42.706;23.372;2023-08-06T05:40:45;4.00;;;3.70;;
6937;SDS011;40040;42.706;23.372;2023-08-06T05:43:11;4.25;;;3.95;;
6937;SDS011;40040;42.706;23.372;2023-08-06T05:45:38;4.80;;;4.40;;
6937;SDS011;40040;42.706;23.372;2023-08-06T05:48:05;4.70;;;4.30;;
6937;SDS011;40040;42.706;23.372;2023-08-06T05:50:32;5.97;;;4.55;;
6937;SDS011;40040;42.706;23.372;2023-08-06T05:53:00;4.75;;;4.45;;
6937;SDS011;40040;42.706;23.372;2023-08-06T05:55:27;4.30;;;4.00;;
6937;SDS011;40040;42.706;23.372;2023-08-06T05:57:53;4.80;;;3.95;;
6937;SDS011;40040;42.706;23.372;2023-08-06T06:00:20;5.35;;;4.85;;
6937;SDS011;40040;42.706;23.372;2023-08-06T06:02:48;5.00;;;4.70;;
6937;SDS011;40040;42.706;23.372;2023-08-06T06:05:15;4.70;;;4.35;;
6937;SDS011;40040;42.706;23.372;2023-08-06T06:07:42;5.28;;;4.57;;
6937;SDS011;40040;42.706;23.372;2023-08-06T06:10:10;5.95;;;5.55;;
6937;SDS011;40040;42.706;23.372;2023-08-06T06:12:38;5.65;;;5.15;;
6937;SDS011;40040;42.706;23.372;2023-08-06T06:15:05;5.65;;;4.72;;
6937;SDS011;40040;42.706;23.372;2023-08-06T06:17:32;4.45;;;4.15;;
6937;SDS011;40040;42.706;23.372;2023-08-06T06:19:59;4.20;;;3.80;;
6937;SDS011;40040;42.706;23.372;2023-08-06T06:22:26;3.50;;;3.30;;
6937;SDS011;40040;42.706;23.372;2023-08-06T06:24:53;4.68;;;3.85;;
6937;SDS011;40040;42.706;23.372;2023-08-06T06:27:21;2.95;;;2.75;;
6937;SDS011;40040;42.706;23.372;2023-08-06T06:29:48;2.72;;;2.63;;
6937;SDS011;40040;42.706;23.372;2023-08-06T06:32:15;3.00;;;2.90;;
6937;SDS011;40040;42.706;23.372;2023-08-06T06:34:42;3.60;;;3.30;;
6937;SDS011;40040;42.706;23.372;2023-08-06T06:37:09;3.55;;;3.35;;
6937;SDS011;40040;42.706;23.372;2023-08-06T06:39:35;3.17;;;3.08;;
6937;SDS011;40040;42.706;23.372;2023-08-06T06:42:03;4.22;;;2.70;;
6937;SDS011;40040;42.706;23.372;2023-08-06T06:44:31;3.22;;;3.08;;
6937;SDS011;40040;42.706;23.372;2023-08-06T06:46:58;3.10;;;2.80;;
6937;SDS011;40040;42.706;23.372;2023-08-06T06:49:25;2.72;;;2.58;;
6937;SDS011;40040;42.706;23.372;2023-08-06T06:51:52;2.55;;;2.45;;
6937;SDS011;40040;42.706;23.372;2023-08-06T06:54:19;2.35;;;2.30;;
6937;SDS011;40040;42.706;23.372;2023-08-06T06:56:45;2.47;;;2.38;;
6937;SDS011;40040;42.706;23.372;2023-08-06T06:59:12;2.67;;;2.58;;
6937;SDS011;40040;42.706;23.372;2023-08-06T07:01:40;2.75;;;2.55;;
6937;SDS011;40040;42.706;23.372;2023-08-06T07:04:07;2.50;;;2.40;;
6937;SDS011;40040;42.706;23.372;2023-08-06T07:06:34;4.22;;;3.08;;
6937;SDS011;40040;42.706;23.372;2023-08-06T07:09:01;3.00;;;2.80;;
6937;SDS011;40040;42.706;23.372;2023-08-06T07:11:28;3.28;;;3.05;;
6937;SDS011;40040;42.706;23.372;2023-08-06T07:13:56;2.70;;;2.50;;
6937;SDS011;40040;42.706;23.372;2023-08-06T07:16:23;3.33;;;2.78;;
6937;SDS011;40040;42.706;23.372;2023-08-06T07:18:52;3.15;;;2.95;;
6937;SDS011;40040;42.706;23.372;2023-08-06T07:21:20;5.15;;;3.28;;
6937;SDS011;40040;42.706;23.372;2023-08-06T07:23:47;3.25;;;3.05;;
6937;SDS011;40040;42.706;23.372;2023-08-06T07:26:14;3.15;;;2.95;;
6937;SDS011;40040;42.706;23.372;2023-08-06T07:28:41;3.78;;;3.38;;
6937;SDS011;40040;42.706;23.372;2023-08-06T07:31:08;2.80;;;2.70;;
6937;SDS011;40040;42.706;23.372;2023-08-06T07:33:35;2.80;;;2.63;;
6937;SDS011;40040;42.706;23.372;2023-08-06T07:36:08;2.60;;;2.50;;
6937;SDS011;40040;42.706;23.372;2023-08-06T07:38:36;2.70;;;2.60;;
6937;SDS011;40040;42.706;23.372;2023-08-06T07:41:03;2.88;;;2.78;;
6937;SDS011;40040;42.706;23.372;2023-08-06T07:43:30;3.03;;;2.83;;
6937;SDS011;40040;42.706;23.372;2023-08-06T07:45:58;3.80;;;3.50;;
6937;SDS011;40040;42.706;23.372;2023-08-06T07:48:25;3.00;;;2.80;;
6937;SDS011;40040;42.706;23.372;2023-08-06T07:50:52;3.00;;;2.90;;
6937;SDS011;40040;42.706;23.372;2023-08-06T07:53:21;4.63;;;4.22;;
6937;SDS011;40040;42.706;23.372;2023-08-06T07:55:49;3.15;;;3.05;;
6937;SDS011;40040;42.706;23.372;2023-08-06T07:58:17;2.60;;;2.50;;
6937;SDS011;40040;42.706;23.372;2023-08-06T08:00:44;2.97;;;2.78;;
6937;SDS011;40040;42.706;23.372;2023-08-06T08:03:11;3.20;;;3.10;;
6937;SDS011;40040;42.706;23.372;2023-08-06T08:05:38;3.13;;;2.92;;
6937;SDS011;40040;42.706;23.372;2023-08-06T08:08:05;3.25;;;3.05;;
6937;SDS011;40040;42.706;23.372;2023-08-06T08:10:34;5.88;;;2.70;;
6937;SDS011;40040;42.706;23.372;2023-08-06T08:13:01;3.28;;;2.90;;
6937;SDS011;40040;42.706;23.372;2023-08-06T08:15:29;3.20;;;3.10;;
6937;SDS011;40040;42.706;23.372;2023-08-06T08:17:57;3.00;;;2.90;;
6937;SDS011;40040;42.706;23.372;2023-08-06T08:20:23;2.78;;;2.67;;
6937;SDS011;40040;42.706;23.372;2023-08-06T08:22:52;3.13;;;2.83;;
6937;SDS011;40040;42.706;23.372;2023-08-06T08:25:19;3.25;;;3.08;;
6937;SDS011;40040;42.706;23.372;2023-08-06T08:27:47;3.30;;;3.10;;
6937;SDS011;40040;42.706;23.372;2023-08-06T08:30:14;3.22;;;3.05;;
6937;SDS011;40040;42.706;23.372;2023-08-06T08:32:41;3.58;;;3.38;;
6937;SDS011;40040;42.706;23.372;2023-08-06T08:35:08;3.28;;;3.13;;
6937;SDS011;40040;42.706;23.372;2023-08-06T08:37:37;3.35;;;3.25;;
6937;SDS011;40040;42.706;23.372;2023-08-06T08:40:05;3.10;;;3.00;;
6937;SDS011;40040;42.706;23.372;2023-08-06T08:42:32;3.17;;;3.08;;
6937;SDS011;40040;42.706;23.372;2023-08-06T08:45:01;3.08;;;2.90;;
6937;SDS011;40040;42.706;23.372;2023-08-06T08:47:28;3.20;;;3.00;;
6937;SDS011;40040;42.706;23.372;2023-08-06T08:49:57;3.00;;;2.90;;
6937;SDS011;40040;42.706;23.372;2023-08-06T08:52:24;2.85;;;2.75;;
6937;SDS011;40040;42.706;23.372;2023-08-06T08:54:55;2.90;;;2.70;;
6937;SDS011;40040;42.706;23.372;2023-08-06T08:57:22;2.90;;;2.80;;
6937;SDS011;40040;42.706;23.372;2023-08-06T08:59:49;2.92;;;2.83;;
6937;SDS011;40040;42.706;23.372;2023-08-06T09:02:17;3.17;;;2.90;;
6937;SDS011;40040;42.706;23.372;2023-08-06T09:04:47;3.20;;;3.00;;
6937;SDS011;40040;42.706;23.372;2023-08-06T09:07:16;3.17;;;3.08;;
6937;SDS011;40040;42.706;23.372;2023-08-06T09:09:46;3.47;;;3.30;;
6937;SDS011;40040;42.706;23.372;2023-08-06T09:12:16;3.20;;;3.10;;
6937;SDS011;40040;42.706;23.372;2023-08-06T09:14:43;3.35;;;3.15;;
6937;SDS011;40040;42.706;23.372;2023-08-06T09:17:10;3.33;;;3.22;;
6937;SDS011;40040;42.706;23.372;2023-08-06T09:19:39;3.55;;;3.35;;
6937;SDS011;40040;42.706;23.372;2023-08-06T09:22:11;3.08;;;2.88;;
6937;SDS011;40040;42.706;23.372;2023-08-06T09:24:39;3.15;;;3.03;;
6937;SDS011;40040;42.706;23.372;2023-08-06T09:27:10;2.95;;;2.85;;
6937;SDS011;40040;42.706;23.372;2023-08-06T09:29:39;3.20;;;3.00;;
6937;SDS011;40040;42.706;23.372;2023-08-06T09:32:07;2.70;;;2.60;;
6937;SDS011;40040;42.706;23.372;2023-08-06T09:34:34;2.58;;;2.47;;
6937;SDS011;40040;42.706;23.372;2023-08-06T09:37:02;2.60;;;2.50;;
6937;SDS011;40040;42.706;23.372;2023-08-06T09:39:30;3.00;;;2.83;;
6937;SDS011;40040;42.706;23.372;2023-08-06T09:41:57;3.13;;;2.90;;
6937;SDS011;40040;42.706;23.372;2023-08-06T09:44:26;2.72;;;2.63;;
6937;SDS011;40040;42.706;23.372;2023-08-06T09:46:54;2.80;;;2.70;;
6937;SDS011;40040;42.706;23.372;2023-08-06T09:49:24;2.83;;;2.63;;
6937;SDS011;40040;42.706;23.372;2023-08-06T09:51:52;2.95;;;2.75;;
6937;SDS011;40040;42.706;23.372;2023-08-06T09:54:23;2.38;;;2.38;;
6937;SDS011;40040;42.706;23.372;2023-08-06T09:56:52;2.53;;;2.42;;
6937;SDS011;40040;42.706;23.372;2023-08-06T09:59:19;2.47;;;2.38;;
6937;SDS011;40040;42.706;23.372;2023-08-06T10:01:46;2.35;;;1.98;;
6937;SDS011;40040;42.706;23.372;2023-08-06T10:04:14;2.42;;;2.40;;
6937;SDS011;40040;42.706;23.372;2023-08-06T10:06:43;2.30;;;2.20;;
6937;SDS011;40040;42.706;23.372;2023-08-06T10:09:14;2.20;;;2.20;;
6937;SDS011;40040;42.706;23.372;2023-08-06T10:11:42;2.90;;;2.70;;
6937;SDS011;40040;42.706;23.372;2023-08-06T10:14:13;3.10;;;2.20;;
6937;SDS011;40040;42.706;23.372;2023-08-06T10:16:42;2.15;;;2.05;;
6937;SDS011;40040;42.706;23.372;2023-08-06T10:19:10;2.13;;;1.90;;
6937;SDS011;40040;42.706;23.372;2023-08-06T10:21:38;2.08;;;1.98;;
6937;SDS011;40040;42.706;23.372;2023-08-06T10:24:06;2.00;;;1.90;;
6937;SDS011;40040;42.706;23.372;2023-08-06T10:26:35;2.50;;;2.30;;
6937;SDS011;40040;42.706;23.372;2023-08-06T10:32:04;2.75;;;2.20;;
6937;SDS011;40040;42.706;23.372;2023-08-06T10:37:21;2.20;;;2.20;;
6937;SDS011;40040;42.706;23.372;2023-08-06T10:39:48;2.55;;;2.40;;
6937;SDS011;40040;42.706;23.372;2023-08-06T10:42:20;2.53;;;2.35;;
6937;SDS011;40040;42.706;23.372;2023-08-06T10:47:45;2.40;;;2.40;;
6937;SDS011;40040;42.706;23.372;2023-08-06T10:50:12;2.60;;;2.50;;
6937;SDS011;40040;42.706;23.372;2023-08-06T10:52:42;2.80;;;2.65;;
6937;SDS011;40040;42.706;23.372;2023-08-06T10:55:09;2.67;;;2.60;;
6937;SDS011;40040;42.706;23.372;2023-08-06T10:57:36;3.28;;;3.08;;
6937;SDS011;40040;42.706;23.372;2023-08-06T11:00:04;3.08;;;2.97;;
6937;SDS011;40040;42.706;23.372;2023-08-06T11:02:34;3.05;;;2.95;;
6937;SDS011;40040;42.706;23.372;2023-08-06T11:05:05;3.00;;;2.80;;
6937;SDS011;40040;42.706;23.372;2023-08-06T11:07:33;3.30;;;3.10;;
6937;SDS011;40040;42.706;23.372;2023-08-06T11:10:03;3.78;;;3.00;;
6937;SDS011;40040;42.706;23.372;2023-08-06T11:12:32;2.95;;;2.75;;
6937;SDS011;40040;42.706;23.372;2023-08-06T11:14:59;3.30;;;3.20;;
6937;SDS011;40040;42.706;23.372;2023-08-06T11:17:27;4.32;;;4.03;;
6937;SDS011;40040;42.706;23.372;2023-08-06T11:19:58;3.83;;;3.63;;
6937;SDS011;40040;42.706;23.372;2023-08-06T11:22:26;4.30;;;4.00;;
6937;SDS011;40040;42.706;23.372;2023-08-06T11:24:53;3.97;;;3.67;;
6937;SDS011;40040;42.706;23.372;2023-08-06T11:27:20;3.97;;;3.78;;
6937;SDS011;40040;42.706;23.372;2023-08-06T11:29:47;4.50;;;4.20;;
6937;SDS011;40040;42.706;23.372;2023-08-06T11:32:14;4.40;;;4.20;;
6937;SDS011;40040;42.706;23.372;2023-08-06T11:34:40;4.55;;;4.25;;
6937;SDS011;40040;42.706;23.372;2023-08-06T11:37:09;4.95;;;4.60;;
6937;SDS011;40040;42.706;23.372;2023-08-06T11:39:36;5.15;;;4.68;;
6937;SDS011;40040;42.706;23.372;2023-08-06T11:42:03;4.82;;;4.53;;
6937;SDS011;40040;42.706;23.372;2023-08-06T11:44:31;5.30;;;4.90;;
6937;SDS011;40040;42.706;23.372;2023-08-06T11:46:59;4.70;;;4.30;;
6937;SDS011;40040;42.706;23.372;2023-08-06T11:49:37;4.90;;;4.60;;
6937;SDS011;40040;42.706;23.372;2023-08-06T11:52:10;4.78;;;4.47;;
6937;SDS011;40040;42.706;23.372;2023-08-06T11:54:39;5.00;;;4.50;;
6937;SDS011;40040;42.706;23.372;2023-08-06T11:57:07;4.80;;;4.47;;
6937;SDS011;40040;42.706;23.372;2023-08-06T11:59:34;5.40;;;4.97;;
6937;SDS011;40040;42.706;23.372;2023-08-06T12:02:01;5.22;;;4.78;;
6937;SDS011;40040;42.706;23.372;2023-08-06T12:04:30;5.13;;;4.72;;
6937;SDS011;40040;42.706;23.372;2023-08-06T12:07:04;5.28;;;4.90;;
6937;SDS011;40040;42.706;23.372;2023-08-06T12:09:34;5.20;;;4.90;;
6937;SDS011;40040;42.706;23.372;2023-08-06T12:12:01;7.05;;;5.60;;
6937;SDS011;40040;42.706;23.372;2023-08-06T12:14:29;5.10;;;4.80;;
6937;SDS011;40040;42.706;23.372;2023-08-06T12:16:56;5.72;;;5.20;;
6937;SDS011;40040;42.706;23.372;2023-08-06T12:19:23;5.05;;;4.65;;
6937;SDS011;40040;42.706;23.372;2023-08-06T12:21:49;5.70;;;5.30;;
6937;SDS011;40040;42.706;23.372;2023-08-06T12:24:16;6.05;;;5.45;;
6937;SDS011;40040;42.706;23.372;2023-08-06T12:26:44;6.20;;;5.70;;
6937;SDS011;40040;42.706;23.372;2023-08-06T12:29:11;5.88;;;5.47;;
6937;SDS011;40040;42.706;23.372;2023-08-06T12:31:38;5.82;;;5.43;;
6937;SDS011;40040;42.706;23.372;2023-08-06T12:34:05;6.10;;;5.65;;
6937;SDS011;40040;42.706;23.372;2023-08-06T12:36:32;6.28;;;5.75;;
6937;SDS011;40040;42.706;23.372;2023-08-06T12:38:58;6.47;;;5.88;;
6937;SDS011;40040;42.706;23.372;2023-08-06T12:41:25;5.75;;;5.40;;
6937;SDS011;40040;42.706;23.372;2023-08-06T12:43:53;6.80;;;6.20;;
6937;SDS011;40040;42.706;23.372;2023-08-06T12:46:20;6.22;;;5.70;;
6937;SDS011;40040;42.706;23.372;2023-08-06T12:48:47;5.90;;;5.40;;
6937;SDS011;40040;42.706;23.372;2023-08-06T12:51:14;6.13;;;5.72;;
6937;SDS011;40040;42.706;23.372;2023-08-06T12:53:41;5.90;;;5.50;;
6937;SDS011;40040;42.706;23.372;2023-08-06T12:56:08;6.10;;;5.50;;
6937;SDS011;40040;42.706;23.372;2023-08-06T12:58:35;6.30;;;5.80;;
6937;SDS011;40040;42.706;23.372;2023-08-06T13:01:03;6.05;;;5.60;;
6937;SDS011;40040;42.706;23.372;2023-08-06T13:03:29;6.55;;;5.95;;
6937;SDS011;40040;42.706;23.372;2023-08-06T13:05:56;5.80;;;5.40;;
6937;SDS011;40040;42.706;23.372;2023-08-06T13:08:23;7.13;;;5.78;;
6937;SDS011;40040;42.706;23.372;2023-08-06T13:10:50;6.00;;;5.60;;
6937;SDS011;40040;42.706;23.372;2023-08-06T13:13:17;5.43;;;5.03;;
6937;SDS011;40040;42.706;23.372;2023-08-06T13:15:44;5.57;;;5.15;;
6937;SDS011;40040;42.706;23.372;2023-08-06T13:18:12;5.70;;;5.20;;
6937;SDS011;40040;42.706;23.372;2023-08-06T13:20:39;5.72;;;5.32;;
6937;SDS011;40040;42.706;23.372;2023-08-06T13:23:06;5.72;;;5.30;;
6937;SDS011;40040;42.706;23.372;2023-08-06T13:25:33;6.10;;;5.10;;
6937;SDS011;40040;42.706;23.372;2023-08-06T13:28:02;5.40;;;5.03;;
6937;SDS011;40040;42.706;23.372;2023-08-06T13:30:29;5.38;;;5.07;;
6937;SDS011;40040;42.706;23.372;2023-08-06T13:32:56;6.13;;;5.57;;
6937;SDS011;40040;42.706;23.372;2023-08-06T13:35:24;5.53;;;5.13;;
6937;SDS011;40040;42.706;23.372;2023-08-06T13:37:51;6.82;;;6.22;;
6937;SDS011;40040;42.706;23.372;2023-08-06T13:40:19;6.15;;;5.55;;
6937;SDS011;40040;42.706;23.372;2023-08-06T13:42:46;5.70;;;5.30;;
6937;SDS011;40040;42.706;23.372;2023-08-06T13:45:13;5.88;;;5.38;;
6937;SDS011;40040;42.706;23.372;2023-08-06T13:47:40;6.85;;;5.78;;
6937;SDS011;40040;42.706;23.372;2023-08-06T13:50:07;6.47;;;5.88;;
6937;SDS011;40040;42.706;23.372;2023-08-06T13:52:36;6.47;;;5.97;;
6937;SDS011;40040;42.706;23.372;2023-08-06T13:55:03;6.18;;;5.68;;
6937;SDS011;40040;42.706;23.372;2023-08-06T13:57:30;6.05;;;5.50;;
6937;SDS011;40040;42.706;23.372;2023-08-06T13:59:57;5.70;;;5.03;;
6937;SDS011;40040;42.706;23.372;2023-08-06T14:02:24;6.00;;;5.60;;
6937;SDS011;40040;42.706;23.372;2023-08-06T14:04:51;7.80;;;7.20;;
6937;SDS011;40040;42.706;23.372;2023-08-06T14:07:18;6.03;;;5.43;;
6937;SDS011;40040;42.706;23.372;2023-08-06T14:09:47;5.97;;;5.47;;
6937;SDS011;40040;42.706;23.372;2023-08-06T14:12:14;5.53;;;5.03;;
6937;SDS011;40040;42.706;23.372;2023-08-06T14:14:41;5.72;;;5.32;;
6937;SDS011;40040;42.706;23.372;2023-08-06T14:17:08;6.30;;;5.78;;
6937;SDS011;40040;42.706;23.372;2023-08-06T14:19:35;5.25;;;4.85;;
6937;SDS011;40040;42.706;23.372;2023-08-06T14:22:01;5.43;;;4.93;;
6937;SDS011;40040;42.706;23.372;2023-08-06T14:24:28;5.45;;;5.15;;
6937;SDS011;40040;42.706;23.372;2023-08-06T14:26:56;4.85;;;4.55;;
6937;SDS011;40040;42.706;23.372;2023-08-06T14:29:23;5.20;;;4.85;;
6937;SDS011;40040;42.706;23.372;2023-08-06T14:31:50;5.18;;;4.88;;
6937;SDS011;40040;42.706;23.372;2023-08-06T14:34:17;5.60;;;5.10;;
6937;SDS011;40040;42.706;23.372;2023-08-06T14:36:44;4.95;;;4.57;;
6937;SDS011;40040;42.706;23.372;2023-08-06T14:39:11;5.13;;;4.70;;
6937;SDS011;40040;42.706;23.372;2023-08-06T14:41:38;5.10;;;4.80;;
6937;SDS011;40040;42.706;23.372;2023-08-06T14:44:06;5.07;;;4.70;;
6937;SDS011;40040;42.706;23.372;2023-08-06T14:46:33;5.80;;;5.40;;
6937;SDS011;40040;42.706;23.372;2023-08-06T14:49:00;5.65;;;5.10;;
6937;SDS011;40040;42.706;23.372;2023-08-06T14:51:26;4.95;;;4.65;;
6937;SDS011;40040;42.706;23.372;2023-08-06T14:53:54;5.47;;;4.68;;
6937;SDS011;40040;42.706;23.372;2023-08-06T14:56:21;5.13;;;4.72;;
6937;SDS011;40040;42.706;23.372;2023-08-06T14:58:48;5.53;;;5.00;;